sensor_id;sensor_type;location;lat;lon;timestamp;P1;durP1;ratioP1;P2;durP2;ratioP2
75914;SDS011;64593;51.050;13.780;2023-04-29T06:05:15;23.92;;;11.35;;
75914;SDS011;64593;51.050;13.780;2023-04-29T06:10:39;15.00;;;9.05;;
75914;SDS011;64593;51.050;13.780;2023-04-29T06:15:43;15.77;;;9.93;;
75914;SDS011;64593;51.050;13.780;2023-04-29T06:20:47;14.55;;;9.35;;
75914;SDS011;64593;51.050;13.780;2023-04-29T06:25:49;13.95;;;9.52;;
75914;SDS011;64593;51.050;13.780;2023-04-29T06:30:53;14.55;;;8.65;;
75914;SDS011;64593;51.050;13.780;2023-04-29T06:35:57;17.00;;;11.32;;
75914;SDS011;64593;51.050;13.780;2023-04-29T06:41:34;16.75;;;12.05;;
75914;SDS011;64593;51.050;13.780;2023-04-29T06:46:48;19.45;;;12.07;;
75914;SDS011;64593;51.050;13.780;2023-04-29T06:52:00;19.67;;;12.52;;
75914;SDS011;64593;51.050;13.780;2023-04-29T06:57:04;19.25;;;12.70;;
75914;SDS011;64593;51.050;13.780;2023-04-29T07:02:06;18.95;;;11.27;;
75914;SDS011;64593;51.050;13.780;2023-04-29T07:07:08;20.45;;;12.00;;
75914;SDS011;64593;51.050;13.780;2023-04-29T07:12:19;18.75;;;11.68;;
75914;SDS011;64593;51.050;13.780;2023-04-29T07:17:28;21.88;;;12.43;;
75914;SDS011;64593;51.050;13.780;2023-04-29T07:22:33;22.95;;;12.68;;
75914;SDS011;64593;51.050;13.780;2023-04-29T07:27:36;24.52;;;13.18;;
75914;SDS011;64593;51.050;13.780;2023-04-29T07:32:41;26.40;;;15.13;;
75914;SDS011;64593;51.050;13.780;2023-04-29T07:37:43;24.67;;;14.57;;
75914;SDS011;64593;51.050;13.780;2023-04-29T07:42:48;24.02;;;15.30;;
75914;SDS011;64593;51.050;13.780;2023-04-29T07:47:50;25.88;;;14.95;;
75914;SDS011;64593;51.050;13.780;2023-04-29T07:52:52;28.92;;;14.95;;
75914;SDS011;64593;51.050;13.780;2023-04-29T07:57:55;19.35;;;12.98;;
75914;SDS011;64593;51.050;13.780;2023-04-29T08:03:00;26.48;;;14.98;;
75914;SDS011;64593;51.050;13.780;2023-04-29T08:08:02;20.52;;;12.70;;
75914;SDS011;64593;51.050;13.780;2023-04-29T08:13:06;16.70;;;10.65;;
75914;SDS011;64593;51.050;13.780;2023-04-29T08:18:08;17.63;;;11.52;;
75914;SDS011;64593;51.050;13.780;2023-04-29T08:23:12;15.25;;;10.55;;
75914;SDS011;64593;51.050;13.780;2023-04-29T08:28:18;13.88;;;9.45;;
75914;SDS011;64593;51.050;13.780;2023-04-29T08:33:23;11.65;;;8.75;;
75914;SDS011;64593;51.050;13.780;2023-04-29T08:38:28;13.57;;;8.75;;
75914;SDS011;64593;51.050;13.780;2023-04-29T08:43:33;12.77;;;8.30;;
75914;SDS011;64593;51.050;13.780;2023-04-29T08:48:36;12.00;;;8.32;;
75914;SDS011;64593;51.050;13.780;2023-04-29T08:53:38;12.57;;;8.68;;
75914;SDS011;64593;51.050;13.780;2023-04-29T08:58:40;12.52;;;8.55;;
75914;SDS011;64593;51.050;13.780;2023-04-29T09:03:47;13.48;;;9.48;;
75914;SDS011;64593;51.050;13.780;2023-04-29T09:08:53;13.88;;;9.60;;
75914;SDS011;64593;51.050;13.780;2023-04-29T09:14:00;14.98;;;9.27;;
75914;SDS011;64593;51.050;13.780;2023-04-29T09:19:07;13.65;;;8.82;;
75914;SDS011;64593;51.050;13.780;2023-04-29T09:24:09;15.48;;;9.57;;
75914;SDS011;64593;51.050;13.780;2023-04-29T09:29:13;14.98;;;9.65;;
75914;SDS011;64593;51.050;13.780;2023-04-29T09:39:41;15.50;;;9.88;;
75914;SDS011;64593;51.050;13.780;2023-04-29T09:44:43;14.80;;;9.75;;
75914;SDS011;64593;51.050;13.780;2023-04-29T09:49:45;18.15;;;11.55;;
75914;SDS011;64593;51.050;13.780;2023-04-29T09:54:51;16.63;;;9.50;;
75914;SDS011;64593;51.050;13.780;2023-04-29T09:59:58;11.95;;;8.07;;
75914;SDS011;64593;51.050;13.780;2023-04-29T10:04:59;13.43;;;8.38;;
75914;SDS011;64593;51.050;13.780;2023-04-29T10:10:26;11.52;;;7.45;;
75914;SDS011;64593;51.050;13.780;2023-04-29T10:15:43;11.38;;;6.53;;
75914;SDS011;64593;51.050;13.780;2023-04-29T10:20:56;10.85;;;6.65;;
75914;SDS011;64593;51.050;13.780;2023-04-29T10:26:27;11.02;;;6.97;;
75914;SDS011;64593;51.050;13.780;2023-04-29T10:36:35;12.23;;;7.65;;
75914;SDS011;64593;51.050;13.780;2023-04-29T10:41:44;14.05;;;8.32;;
75914;SDS011;64593;51.050;13.780;2023-04-29T10:47:17;14.60;;;9.25;;
75914;SDS011;64593;51.050;13.780;2023-04-29T10:52:50;14.88;;;9.00;;
75914;SDS011;64593;51.050;13.780;2023-04-29T11:09:06;12.52;;;8.65;;
75914;SDS011;64593;51.050;13.780;2023-04-29T11:14:09;12.68;;;8.43;;
75914;SDS011;64593;51.050;13.780;2023-04-29T11:19:31;12.35;;;8.05;;
75914;SDS011;64593;51.050;13.780;2023-04-29T11:24:54;13.60;;;9.00;;
75914;SDS011;64593;51.050;13.780;2023-04-29T11:30:03;13.52;;;8.63;;
75914;SDS011;64593;51.050;13.780;2023-04-29T11:35:27;10.50;;;7.47;;
75914;SDS011;64593;51.050;13.780;2023-04-29T11:40:41;8.35;;;6.18;;
75914;SDS011;64593;51.050;13.780;2023-04-29T11:46:13;8.90;;;6.60;;
75914;SDS011;64593;51.050;13.780;2023-04-29T11:51:43;8.95;;;6.30;;
75914;SDS011;64593;51.050;13.780;2023-04-29T11:57:13;8.52;;;5.53;;
75914;SDS011;64593;51.050;13.780;2023-04-29T12:07:53;6.35;;;4.30;;
75914;SDS011;64593;51.050;13.780;2023-04-29T12:13:36;5.53;;;3.95;;
75914;SDS011;64593;51.050;13.780;2023-04-29T12:19:09;6.63;;;3.88;;
75914;SDS011;64593;51.050;13.780;2023-04-29T12:24:23;6.05;;;4.65;;
75914;SDS011;64593;51.050;13.780;2023-04-29T12:30:17;6.78;;;5.30;;
75914;SDS011;64593;51.050;13.780;2023-04-29T12:35:22;7.75;;;5.65;;
75914;SDS011;64593;51.050;13.780;2023-04-29T12:40:36;9.70;;;6.40;;
75914;SDS011;64593;51.050;13.780;2023-04-29T12:45:44;9.52;;;6.85;;
75914;SDS011;64593;51.050;13.780;2023-04-29T12:50:47;9.48;;;6.38;;
75914;SDS011;64593;51.050;13.780;2023-04-29T12:55:52;8.77;;;5.97;;
75914;SDS011;64593;51.050;13.780;2023-04-29T13:00:54;7.03;;;5.43;;
75914;SDS011;64593;51.050;13.780;2023-04-29T13:06:05;8.00;;;5.75;;
75914;SDS011;64593;51.050;13.780;2023-04-29T13:11:10;6.90;;;5.07;;
75914;SDS011;64593;51.050;13.780;2023-04-29T13:16:38;8.63;;;6.47;;
75914;SDS011;64593;51.050;13.780;2023-04-29T13:21:47;9.80;;;6.45;;
75914;SDS011;64593;51.050;13.780;2023-04-29T13:27:15;10.32;;;6.03;;
75914;SDS011;64593;51.050;13.780;2023-04-29T13:32:18;15.23;;;9.43;;
75914;SDS011;64593;51.050;13.780;2023-04-29T13:37:24;13.63;;;8.98;;
75914;SDS011;64593;51.050;13.780;2023-04-29T13:42:51;21.98;;;12.10;;
75914;SDS011;64593;51.050;13.780;2023-04-29T13:48:29;19.52;;;10.52;;
75914;SDS011;64593;51.050;13.780;2023-04-29T13:54:16;21.13;;;11.82;;
75914;SDS011;64593;51.050;13.780;2023-04-29T13:59:49;20.88;;;11.38;;
75914;SDS011;64593;51.050;13.780;2023-04-29T14:05:01;27.98;;;14.00;;
75914;SDS011;64593;51.050;13.780;2023-04-29T14:10:25;28.65;;;13.45;;
75914;SDS011;64593;51.050;13.780;2023-04-29T14:15:40;24.25;;;13.32;;
75914;SDS011;64593;51.050;13.780;2023-04-29T14:21:09;23.50;;;12.95;;
75914;SDS011;64593;51.050;13.780;2023-04-29T14:26:12;25.58;;;13.13;;
75914;SDS011;64593;51.050;13.780;2023-04-29T14:31:28;22.02;;;12.45;;
75914;SDS011;64593;51.050;13.780;2023-04-29T14:36:59;21.17;;;11.60;;
75914;SDS011;64593;51.050;13.780;2023-04-29T14:42:07;22.63;;;12.02;;
75914;SDS011;64593;51.050;13.780;2023-04-29T14:52:37;22.13;;;13.43;;
75914;SDS011;64593;51.050;13.780;2023-04-29T14:57:39;21.52;;;11.77;;
75914;SDS011;64593;51.050;13.780;2023-04-29T15:02:40;21.90;;;11.25;;
75914;SDS011;64593;51.050;13.780;2023-04-29T15:08:09;23.80;;;12.23;;
75914;SDS011;64593;51.050;13.780;2023-04-29T15:13:14;20.88;;;11.95;;
75914;SDS011;64593;51.050;13.780;2023-04-29T15:18:16;24.05;;;13.20;;
75914;SDS011;64593;51.050;13.780;2023-04-29T15:23:43;19.77;;;11.30;;
75914;SDS011;64593;51.050;13.780;2023-04-29T15:28:47;22.67;;;12.40;;
75914;SDS011;64593;51.050;13.780;2023-04-29T15:34:14;18.98;;;10.95;;
75914;SDS011;64593;51.050;13.780;2023-04-29T15:39:41;20.30;;;12.25;;
75914;SDS011;64593;51.050;13.780;2023-04-29T15:45:09;16.65;;;11.25;;
75914;SDS011;64593;51.050;13.780;2023-04-29T15:50:12;18.55;;;11.57;;
75914;SDS011;64593;51.050;13.780;2023-04-29T15:55:14;20.55;;;12.35;;
75914;SDS011;64593;51.050;13.780;2023-04-29T16:00:42;21.58;;;12.75;;
75914;SDS011;64593;51.050;13.780;2023-04-29T16:06:08;19.98;;;11.93;;
75914;SDS011;64593;51.050;13.780;2023-04-29T16:11:36;20.40;;;12.02;;
75914;SDS011;64593;51.050;13.780;2023-04-29T16:17:02;20.52;;;12.40;;
75914;SDS011;64593;51.050;13.780;2023-04-29T16:27:07;16.90;;;11.52;;
75914;SDS011;64593;51.050;13.780;2023-04-29T16:32:34;21.95;;;11.80;;
75914;SDS011;64593;51.050;13.780;2023-04-29T16:37:36;19.95;;;12.27;;
75914;SDS011;64593;51.050;13.780;2023-04-29T16:54:01;16.50;;;11.30;;
75914;SDS011;64593;51.050;13.780;2023-04-29T16:59:06;17.48;;;11.23;;
75914;SDS011;64593;51.050;13.780;2023-04-29T17:04:08;18.88;;;12.35;;
75914;SDS011;64593;51.050;13.780;2023-04-29T17:09:42;18.08;;;11.77;;
75914;SDS011;64593;51.050;13.780;2023-04-29T17:14:47;16.60;;;10.82;;
75914;SDS011;64593;51.050;13.780;2023-04-29T17:19:52;17.65;;;10.45;;
75914;SDS011;64593;51.050;13.780;2023-04-29T17:25:21;18.98;;;10.15;;
75914;SDS011;64593;51.050;13.780;2023-04-29T17:30:32;16.90;;;11.25;;
75914;SDS011;64593;51.050;13.780;2023-04-29T17:35:44;17.17;;;11.13;;
75914;SDS011;64593;51.050;13.780;2023-04-29T17:40:48;17.73;;;11.38;;
75914;SDS011;64593;51.050;13.780;2023-04-29T17:46:18;17.35;;;10.98;;
75914;SDS011;64593;51.050;13.780;2023-04-29T17:51:25;17.15;;;10.60;;
75914;SDS011;64593;51.050;13.780;2023-04-29T17:56:36;18.17;;;11.27;;
75914;SDS011;64593;51.050;13.780;2023-04-29T18:01:47;16.45;;;10.60;;
75914;SDS011;64593;51.050;13.780;2023-04-29T18:07:19;15.77;;;10.10;;
75914;SDS011;64593;51.050;13.780;2023-04-29T18:12:30;19.95;;;11.60;;
75914;SDS011;64593;51.050;13.780;2023-04-29T18:17:46;16.13;;;10.15;;
75914;SDS011;64593;51.050;13.780;2023-04-29T18:23:02;19.67;;;10.40;;
75914;SDS011;64593;51.050;13.780;2023-04-29T18:28:08;15.48;;;9.52;;
75914;SDS011;64593;51.050;13.780;2023-04-29T18:33:29;16.70;;;10.15;;
75914;SDS011;64593;51.050;13.780;2023-04-29T18:39:07;15.55;;;10.57;;
75914;SDS011;64593;51.050;13.780;2023-04-29T18:44:37;13.27;;;8.70;;
75914;SDS011;64593;51.050;13.780;2023-04-29T18:50:05;15.77;;;9.68;;
75914;SDS011;64593;51.050;13.780;2023-04-29T18:55:18;19.02;;;9.30;;
75914;SDS011;64593;51.050;13.780;2023-04-29T19:00:52;12.55;;;8.13;;
75914;SDS011;64593;51.050;13.780;2023-04-29T19:06:03;14.20;;;9.07;;
75914;SDS011;64593;51.050;13.780;2023-04-29T19:11:47;13.52;;;8.55;;
75914;SDS011;64593;51.050;13.780;2023-04-29T19:17:26;13.68;;;8.85;;
75914;SDS011;64593;51.050;13.780;2023-04-29T19:23:07;15.63;;;9.75;;
75914;SDS011;64593;51.050;13.780;2023-04-29T19:28:38;18.25;;;9.52;;
75914;SDS011;64593;51.050;13.780;2023-04-29T19:39:11;16.92;;;9.45;;
75914;SDS011;64593;51.050;13.780;2023-04-29T19:44:46;16.70;;;9.98;;
75914;SDS011;64593;51.050;13.780;2023-04-29T19:49:51;19.35;;;11.38;;
75914;SDS011;64593;51.050;13.780;2023-04-29T19:55:30;15.32;;;9.90;;
75914;SDS011;64593;51.050;13.780;2023-04-29T20:01:03;18.58;;;10.18;;
75914;SDS011;64593;51.050;13.780;2023-04-29T20:06:38;16.88;;;10.63;;
75914;SDS011;64593;51.050;13.780;2023-04-29T20:12:04;18.38;;;10.88;;
75914;SDS011;64593;51.050;13.780;2023-04-29T20:17:36;15.60;;;10.30;;
75914;SDS011;64593;51.050;13.780;2023-04-29T20:23:25;16.55;;;11.48;;
75914;SDS011;64593;51.050;13.780;2023-04-29T20:28:31;14.07;;;11.10;;
75914;SDS011;64593;51.050;13.780;2023-04-29T20:33:36;18.58;;;10.50;;
75914;SDS011;64593;51.050;13.780;2023-04-29T20:39:15;18.65;;;11.30;;
75914;SDS011;64593;51.050;13.780;2023-04-29T20:44:27;16.67;;;10.13;;
75914;SDS011;64593;51.050;13.780;2023-04-29T20:49:39;16.85;;;10.93;;
75914;SDS011;64593;51.050;13.780;2023-04-29T20:54:47;16.02;;;11.07;;
75914;SDS011;64593;51.050;13.780;2023-04-29T21:00:26;23.85;;;12.43;;
75914;SDS011;64593;51.050;13.780;2023-04-29T21:05:56;15.23;;;10.32;;
75914;SDS011;64593;51.050;13.780;2023-04-29T21:11:06;17.27;;;11.82;;
75914;SDS011;64593;51.050;13.780;2023-04-29T21:16:18;17.55;;;10.95;;
75914;SDS011;64593;51.050;13.780;2023-04-29T21:22:23;17.98;;;11.30;;
75914;SDS011;64593;51.050;13.780;2023-04-29T21:28:05;16.65;;;10.75;;
75914;SDS011;64593;51.050;13.780;2023-04-29T21:33:59;17.38;;;11.43;;
75914;SDS011;64593;51.050;13.780;2023-04-29T21:40:05;23.35;;;11.48;;
75914;SDS011;64593;51.050;13.780;2023-04-29T21:52:28;18.58;;;11.68;;
75914;SDS011;64593;51.050;13.780;2023-04-29T21:58:04;17.58;;;12.27;;
